sensor_id;sensor_type;location;lat;lon;timestamp;P1;durP1;ratioP1;P2;durP2;ratioP2
6661;SDS011;3367;48.714;8.994;2023-02-14T00:01:15;33.60;;;18.00;;
6661;SDS011;3367;48.714;8.994;2023-02-14T00:03:41;34.37;;;17.50;;
6661;SDS011;3367;48.714;8.994;2023-02-14T00:06:11;35.23;;;17.13;;
6661;SDS011;3367;48.714;8.994;2023-02-14T00:08:39;37.97;;;18.13;;
6661;SDS011;3367;48.714;8.994;2023-02-14T00:11:08;39.13;;;19.13;;
6661;SDS011;3367;48.714;8.994;2023-02-14T00:13:35;34.83;;;17.67;;
6661;SDS011;3367;48.714;8.994;2023-02-14T00:16:02;36.93;;;18.00;;
6661;SDS011;3367;48.714;8.994;2023-02-14T00:18:28;39.10;;;17.80;;
6661;SDS011;3367;48.714;8.994;2023-02-14T00:21:10;41.40;;;19.57;;
6661;SDS011;3367;48.714;8.994;2023-02-14T00:23:37;36.33;;;18.50;;
6661;SDS011;3367;48.714;8.994;2023-02-14T00:26:04;39.60;;;20.50;;
6661;SDS011;3367;48.714;8.994;2023-02-14T00:28:30;39.57;;;18.70;;
6661;SDS011;3367;48.714;8.994;2023-02-14T00:30:57;37.60;;;19.13;;
6661;SDS011;3367;48.714;8.994;2023-02-14T00:33:26;36.23;;;18.90;;
6661;SDS011;3367;48.714;8.994;2023-02-14T00:35:52;40.87;;;18.70;;
6661;SDS011;3367;48.714;8.994;2023-02-14T00:38:20;37.67;;;18.73;;
6661;SDS011;3367;48.714;8.994;2023-02-14T00:40:47;42.23;;;19.60;;
6661;SDS011;3367;48.714;8.994;2023-02-14T00:43:14;44.47;;;20.03;;
6661;SDS011;3367;48.714;8.994;2023-02-14T00:45:40;43.37;;;20.10;;
6661;SDS011;3367;48.714;8.994;2023-02-14T00:48:07;45.43;;;20.03;;
6661;SDS011;3367;48.714;8.994;2023-02-14T00:50:34;38.70;;;20.93;;
6661;SDS011;3367;48.714;8.994;2023-02-14T00:53:00;38.10;;;18.97;;
6661;SDS011;3367;48.714;8.994;2023-02-14T00:55:28;37.53;;;18.93;;
6661;SDS011;3367;48.714;8.994;2023-02-14T00:57:55;39.37;;;18.90;;
6661;SDS011;3367;48.714;8.994;2023-02-14T01:00:22;39.40;;;19.60;;
6661;SDS011;3367;48.714;8.994;2023-02-14T01:02:49;39.00;;;18.53;;
6661;SDS011;3367;48.714;8.994;2023-02-14T01:05:15;41.53;;;19.20;;
6661;SDS011;3367;48.714;8.994;2023-02-14T01:07:42;41.17;;;19.13;;
6661;SDS011;3367;48.714;8.994;2023-02-14T01:10:09;33.00;;;18.10;;
6661;SDS011;3367;48.714;8.994;2023-02-14T01:12:38;38.37;;;18.27;;
6661;SDS011;3367;48.714;8.994;2023-02-14T01:15:04;39.93;;;20.03;;
6661;SDS011;3367;48.714;8.994;2023-02-14T01:17:32;45.23;;;19.43;;
6661;SDS011;3367;48.714;8.994;2023-02-14T01:19:58;38.43;;;18.70;;
6661;SDS011;3367;48.714;8.994;2023-02-14T01:22:25;47.53;;;21.43;;
6661;SDS011;3367;48.714;8.994;2023-02-14T01:24:52;43.30;;;21.00;;
6661;SDS011;3367;48.714;8.994;2023-02-14T01:27:18;47.70;;;21.17;;
6661;SDS011;3367;48.714;8.994;2023-02-14T01:29:46;42.77;;;19.03;;
6661;SDS011;3367;48.714;8.994;2023-02-14T01:32:13;51.00;;;23.20;;
6661;SDS011;3367;48.714;8.994;2023-02-14T01:34:39;51.10;;;22.17;;
6661;SDS011;3367;48.714;8.994;2023-02-14T01:37:06;46.97;;;22.10;;
6661;SDS011;3367;48.714;8.994;2023-02-14T01:39:33;47.07;;;20.93;;
6661;SDS011;3367;48.714;8.994;2023-02-14T01:41:59;44.37;;;21.93;;
6661;SDS011;3367;48.714;8.994;2023-02-14T01:47:28;46.50;;;20.17;;
6661;SDS011;3367;48.714;8.994;2023-02-14T01:49:59;42.30;;;19.20;;
6661;SDS011;3367;48.714;8.994;2023-02-14T01:52:30;39.97;;;19.43;;
6661;SDS011;3367;48.714;8.994;2023-02-14T01:55:00;37.57;;;19.27;;
6661;SDS011;3367;48.714;8.994;2023-02-14T01:57:31;40.83;;;19.63;;
6661;SDS011;3367;48.714;8.994;2023-02-14T02:00:03;51.40;;;21.50;;
6661;SDS011;3367;48.714;8.994;2023-02-14T02:02:50;49.30;;;20.83;;
6661;SDS011;3367;48.714;8.994;2023-02-14T02:05:17;51.17;;;21.30;;
6661;SDS011;3367;48.714;8.994;2023-02-14T02:07:47;49.93;;;21.47;;
6661;SDS011;3367;48.714;8.994;2023-02-14T02:10:15;41.80;;;20.13;;
6661;SDS011;3367;48.714;8.994;2023-02-14T02:12:42;45.60;;;20.57;;
6661;SDS011;3367;48.714;8.994;2023-02-14T02:15:10;46.20;;;19.80;;
6661;SDS011;3367;48.714;8.994;2023-02-14T02:17:40;43.30;;;21.43;;
6661;SDS011;3367;48.714;8.994;2023-02-14T02:23:25;41.27;;;19.90;;
6661;SDS011;3367;48.714;8.994;2023-02-14T02:26:18;40.17;;;19.50;;
6661;SDS011;3367;48.714;8.994;2023-02-14T02:35:17;34.43;;;18.30;;
6661;SDS011;3367;48.714;8.994;2023-02-14T02:37:57;39.83;;;19.70;;
6661;SDS011;3367;48.714;8.994;2023-02-14T02:40:36;32.67;;;16.90;;
6661;SDS011;3367;48.714;8.994;2023-02-14T02:43:10;37.07;;;20.00;;
6661;SDS011;3367;48.714;8.994;2023-02-14T02:45:46;38.60;;;18.50;;
6661;SDS011;3367;48.714;8.994;2023-02-14T02:48:34;41.53;;;19.33;;
6661;SDS011;3367;48.714;8.994;2023-02-14T02:51:09;40.23;;;19.10;;
6661;SDS011;3367;48.714;8.994;2023-02-14T02:53:59;35.83;;;17.90;;
6661;SDS011;3367;48.714;8.994;2023-02-14T02:56:34;38.20;;;19.73;;
6661;SDS011;3367;48.714;8.994;2023-02-14T02:59:11;44.73;;;20.20;;
6661;SDS011;3367;48.714;8.994;2023-02-14T03:01:44;53.17;;;20.50;;
6661;SDS011;3367;48.714;8.994;2023-02-14T03:04:14;40.50;;;18.50;;
6661;SDS011;3367;48.714;8.994;2023-02-14T03:07:02;36.33;;;18.00;;
6661;SDS011;3367;48.714;8.994;2023-02-14T03:09:50;40.47;;;19.20;;
6661;SDS011;3367;48.714;8.994;2023-02-14T03:12:38;39.80;;;18.57;;
6661;SDS011;3367;48.714;8.994;2023-02-14T03:15:21;40.70;;;17.97;;
6661;SDS011;3367;48.714;8.994;2023-02-14T03:18:01;38.53;;;18.83;;
6661;SDS011;3367;48.714;8.994;2023-02-14T03:20:52;38.50;;;18.87;;
6661;SDS011;3367;48.714;8.994;2023-02-14T03:23:26;38.60;;;17.60;;
6661;SDS011;3367;48.714;8.994;2023-02-14T03:25:58;36.13;;;18.00;;
6661;SDS011;3367;48.714;8.994;2023-02-14T03:28:36;35.30;;;18.50;;
6661;SDS011;3367;48.714;8.994;2023-02-14T03:31:11;37.40;;;18.60;;
6661;SDS011;3367;48.714;8.994;2023-02-14T03:33:46;44.63;;;18.93;;
6661;SDS011;3367;48.714;8.994;2023-02-14T03:36:17;41.13;;;19.63;;
6661;SDS011;3367;48.714;8.994;2023-02-14T03:38:48;41.90;;;19.50;;
6661;SDS011;3367;48.714;8.994;2023-02-14T03:41:22;36.00;;;18.40;;
6661;SDS011;3367;48.714;8.994;2023-02-14T03:43:53;41.60;;;18.17;;
6661;SDS011;3367;48.714;8.994;2023-02-14T03:46:23;33.50;;;16.97;;
6661;SDS011;3367;48.714;8.994;2023-02-14T03:48:53;37.80;;;18.00;;
6661;SDS011;3367;48.714;8.994;2023-02-14T03:51:22;34.87;;;17.70;;
6661;SDS011;3367;48.714;8.994;2023-02-14T03:53:53;31.30;;;16.70;;
6661;SDS011;3367;48.714;8.994;2023-02-14T03:56:24;36.90;;;18.93;;
6661;SDS011;3367;48.714;8.994;2023-02-14T03:58:55;39.73;;;17.90;;
6661;SDS011;3367;48.714;8.994;2023-02-14T04:01:25;35.60;;;18.40;;
6661;SDS011;3367;48.714;8.994;2023-02-14T04:03:55;29.70;;;16.50;;
6661;SDS011;3367;48.714;8.994;2023-02-14T04:06:24;41.77;;;18.20;;
6661;SDS011;3367;48.714;8.994;2023-02-14T04:08:52;36.37;;;18.37;;
6661;SDS011;3367;48.714;8.994;2023-02-14T04:11:19;32.33;;;18.10;;
6661;SDS011;3367;48.714;8.994;2023-02-14T04:13:46;32.17;;;17.30;;
6661;SDS011;3367;48.714;8.994;2023-02-14T04:16:13;31.03;;;16.50;;
6661;SDS011;3367;48.714;8.994;2023-02-14T04:18:39;28.47;;;15.97;;
6661;SDS011;3367;48.714;8.994;2023-02-14T04:21:23;35.07;;;17.60;;
6661;SDS011;3367;48.714;8.994;2023-02-14T04:23:50;35.23;;;17.53;;
6661;SDS011;3367;48.714;8.994;2023-02-14T04:26:18;29.40;;;15.00;;
6661;SDS011;3367;48.714;8.994;2023-02-14T04:28:45;33.87;;;17.60;;
6661;SDS011;3367;48.714;8.994;2023-02-14T04:31:12;28.80;;;16.17;;
6661;SDS011;3367;48.714;8.994;2023-02-14T04:33:38;36.13;;;15.60;;
6661;SDS011;3367;48.714;8.994;2023-02-14T04:36:05;28.87;;;14.90;;
6661;SDS011;3367;48.714;8.994;2023-02-14T04:38:32;28.60;;;16.43;;
6661;SDS011;3367;48.714;8.994;2023-02-14T04:41:00;29.20;;;15.30;;
6661;SDS011;3367;48.714;8.994;2023-02-14T04:43:27;27.50;;;16.27;;
6661;SDS011;3367;48.714;8.994;2023-02-14T04:45:54;30.67;;;17.00;;
6661;SDS011;3367;48.714;8.994;2023-02-14T04:48:21;36.37;;;17.70;;
6661;SDS011;3367;48.714;8.994;2023-02-14T04:50:50;30.17;;;15.40;;
6661;SDS011;3367;48.714;8.994;2023-02-14T04:53:17;31.57;;;16.30;;
6661;SDS011;3367;48.714;8.994;2023-02-14T04:55:44;33.10;;;16.70;;
6661;SDS011;3367;48.714;8.994;2023-02-14T04:58:12;33.57;;;16.80;;
6661;SDS011;3367;48.714;8.994;2023-02-14T05:00:39;34.00;;;17.47;;
6661;SDS011;3367;48.714;8.994;2023-02-14T05:03:06;32.47;;;14.70;;
6661;SDS011;3367;48.714;8.994;2023-02-14T05:05:33;34.03;;;16.37;;
6661;SDS011;3367;48.714;8.994;2023-02-14T05:07:59;33.27;;;16.70;;
6661;SDS011;3367;48.714;8.994;2023-02-14T05:10:26;31.97;;;15.40;;
6661;SDS011;3367;48.714;8.994;2023-02-14T05:12:53;30.77;;;15.67;;
6661;SDS011;3367;48.714;8.994;2023-02-14T05:15:21;32.73;;;16.43;;
6661;SDS011;3367;48.714;8.994;2023-02-14T05:17:48;29.20;;;15.00;;
6661;SDS011;3367;48.714;8.994;2023-02-14T05:20:15;32.07;;;15.93;;
6661;SDS011;3367;48.714;8.994;2023-02-14T05:22:42;27.37;;;14.63;;
6661;SDS011;3367;48.714;8.994;2023-02-14T05:25:09;33.07;;;17.27;;
6661;SDS011;3367;48.714;8.994;2023-02-14T05:27:36;34.17;;;18.63;;
6661;SDS011;3367;48.714;8.994;2023-02-14T05:30:03;39.77;;;19.87;;
6661;SDS011;3367;48.714;8.994;2023-02-14T05:32:32;36.43;;;19.40;;
6661;SDS011;3367;48.714;8.994;2023-02-14T05:34:59;41.80;;;20.07;;
6661;SDS011;3367;48.714;8.994;2023-02-14T05:37:25;34.43;;;17.67;;
6661;SDS011;3367;48.714;8.994;2023-02-14T05:39:52;38.77;;;18.70;;
6661;SDS011;3367;48.714;8.994;2023-02-14T05:42:19;31.37;;;18.50;;
6661;SDS011;3367;48.714;8.994;2023-02-14T05:44:45;35.50;;;18.37;;
6661;SDS011;3367;48.714;8.994;2023-02-14T05:47:12;32.00;;;18.20;;
6661;SDS011;3367;48.714;8.994;2023-02-14T05:49:41;34.07;;;16.70;;
6661;SDS011;3367;48.714;8.994;2023-02-14T05:52:08;33.50;;;18.23;;
6661;SDS011;3367;48.714;8.994;2023-02-14T05:54:35;31.03;;;17.57;;
6661;SDS011;3367;48.714;8.994;2023-02-14T05:57:02;34.60;;;18.33;;
6661;SDS011;3367;48.714;8.994;2023-02-14T05:59:28;36.70;;;18.43;;
6661;SDS011;3367;48.714;8.994;2023-02-14T06:01:55;40.00;;;18.07;;
6661;SDS011;3367;48.714;8.994;2023-02-14T06:04:22;45.57;;;21.97;;
6661;SDS011;3367;48.714;8.994;2023-02-14T06:06:50;32.90;;;18.07;;
6661;SDS011;3367;48.714;8.994;2023-02-14T06:09:16;31.87;;;17.47;;
6661;SDS011;3367;48.714;8.994;2023-02-14T06:11:43;33.40;;;17.07;;
6661;SDS011;3367;48.714;8.994;2023-02-14T06:14:10;31.73;;;16.63;;
6661;SDS011;3367;48.714;8.994;2023-02-14T06:16:37;31.43;;;17.20;;
6661;SDS011;3367;48.714;8.994;2023-02-14T06:19:03;37.07;;;17.73;;
6661;SDS011;3367;48.714;8.994;2023-02-14T06:21:30;33.97;;;18.30;;
6661;SDS011;3367;48.714;8.994;2023-02-14T06:23:58;38.07;;;18.67;;
6661;SDS011;3367;48.714;8.994;2023-02-14T06:26:25;37.90;;;19.00;;
6661;SDS011;3367;48.714;8.994;2023-02-14T06:28:52;35.13;;;17.57;;
6661;SDS011;3367;48.714;8.994;2023-02-14T06:31:19;43.63;;;17.80;;
6661;SDS011;3367;48.714;8.994;2023-02-14T06:33:46;36.20;;;18.77;;
6661;SDS011;3367;48.714;8.994;2023-02-14T06:36:13;34.10;;;17.60;;
6661;SDS011;3367;48.714;8.994;2023-02-14T06:38:40;40.40;;;20.47;;
6661;SDS011;3367;48.714;8.994;2023-02-14T06:41:08;46.83;;;19.67;;
6661;SDS011;3367;48.714;8.994;2023-02-14T06:43:36;33.90;;;18.93;;
6661;SDS011;3367;48.714;8.994;2023-02-14T06:46:03;40.77;;;19.30;;
6661;SDS011;3367;48.714;8.994;2023-02-14T06:48:30;41.00;;;20.93;;
6661;SDS011;3367;48.714;8.994;2023-02-14T06:50:57;44.47;;;21.50;;
6661;SDS011;3367;48.714;8.994;2023-02-14T06:53:24;40.43;;;20.73;;
6661;SDS011;3367;48.714;8.994;2023-02-14T06:55:50;53.10;;;24.13;;
6661;SDS011;3367;48.714;8.994;2023-02-14T06:58:18;43.30;;;20.30;;
6661;SDS011;3367;48.714;8.994;2023-02-14T07:00:45;43.40;;;23.17;;
6661;SDS011;3367;48.714;8.994;2023-02-14T07:03:12;41.23;;;20.83;;
6661;SDS011;3367;48.714;8.994;2023-02-14T07:05:39;44.93;;;21.60;;
6661;SDS011;3367;48.714;8.994;2023-02-14T07:08:06;51.07;;;22.87;;
6661;SDS011;3367;48.714;8.994;2023-02-14T07:10:33;47.47;;;21.70;;
6661;SDS011;3367;48.714;8.994;2023-02-14T07:13:00;47.13;;;23.13;;
6661;SDS011;3367;48.714;8.994;2023-02-14T07:15:28;45.50;;;22.80;;
6661;SDS011;3367;48.714;8.994;2023-02-14T07:17:55;44.10;;;21.73;;
6661;SDS011;3367;48.714;8.994;2023-02-14T07:20:22;46.73;;;23.07;;
6661;SDS011;3367;48.714;8.994;2023-02-14T07:22:49;34.97;;;19.50;;
6661;SDS011;3367;48.714;8.994;2023-02-14T07:25:16;38.30;;;21.70;;
6661;SDS011;3367;48.714;8.994;2023-02-14T07:27:43;42.27;;;21.97;;
6661;SDS011;3367;48.714;8.994;2023-02-14T07:30:10;38.57;;;21.00;;
6661;SDS011;3367;48.714;8.994;2023-02-14T07:32:39;43.00;;;22.40;;
6661;SDS011;3367;48.714;8.994;2023-02-14T07:35:06;36.20;;;20.43;;
6661;SDS011;3367;48.714;8.994;2023-02-14T07:37:34;45.23;;;20.40;;
6661;SDS011;3367;48.714;8.994;2023-02-14T07:40:01;35.57;;;18.63;;
6661;SDS011;3367;48.714;8.994;2023-02-14T07:42:27;33.70;;;19.47;;
6661;SDS011;3367;48.714;8.994;2023-02-14T07:44:54;40.27;;;21.33;;
6661;SDS011;3367;48.714;8.994;2023-02-14T07:47:21;34.80;;;19.73;;
6661;SDS011;3367;48.714;8.994;2023-02-14T07:49:50;37.80;;;20.60;;
6661;SDS011;3367;48.714;8.994;2023-02-14T07:52:17;39.97;;;22.27;;
6661;SDS011;3367;48.714;8.994;2023-02-14T07:54:43;43.07;;;20.63;;
6661;SDS011;3367;48.714;8.994;2023-02-14T07:57:10;43.77;;;22.50;;
6661;SDS011;3367;48.714;8.994;2023-02-14T07:59:37;39.23;;;20.23;;
6661;SDS011;3367;48.714;8.994;2023-02-14T08:02:03;41.13;;;21.13;;
6661;SDS011;3367;48.714;8.994;2023-02-14T08:04:30;39.73;;;20.80;;
6661;SDS011;3367;48.714;8.994;2023-02-14T08:06:58;42.63;;;20.77;;
6661;SDS011;3367;48.714;8.994;2023-02-14T08:09:25;44.00;;;20.43;;
6661;SDS011;3367;48.714;8.994;2023-02-14T08:11:52;45.07;;;21.53;;
6661;SDS011;3367;48.714;8.994;2023-02-14T08:14:38;48.17;;;24.93;;
6661;SDS011;3367;48.714;8.994;2023-02-14T08:17:05;44.87;;;21.23;;
6661;SDS011;3367;48.714;8.994;2023-02-14T08:19:34;43.33;;;23.10;;
6661;SDS011;3367;48.714;8.994;2023-02-14T08:22:03;29.77;;;17.73;;
6661;SDS011;3367;48.714;8.994;2023-02-14T08:24:30;37.43;;;20.83;;
6661;SDS011;3367;48.714;8.994;2023-02-14T08:26:57;36.10;;;19.90;;
6661;SDS011;3367;48.714;8.994;2023-02-14T08:29:24;40.90;;;18.73;;
6661;SDS011;3367;48.714;8.994;2023-02-14T08:31:51;40.00;;;20.57;;
6661;SDS011;3367;48.714;8.994;2023-02-14T08:34:18;33.33;;;19.07;;
6661;SDS011;3367;48.714;8.994;2023-02-14T08:36:44;36.87;;;20.77;;
6661;SDS011;3367;48.714;8.994;2023-02-14T08:39:12;39.17;;;20.60;;
6661;SDS011;3367;48.714;8.994;2023-02-14T08:41:39;38.07;;;19.37;;
6661;SDS011;3367;48.714;8.994;2023-02-14T08:44:06;33.80;;;19.50;;
6661;SDS011;3367;48.714;8.994;2023-02-14T08:46:33;41.73;;;20.43;;
6661;SDS011;3367;48.714;8.994;2023-02-14T08:48:59;38.43;;;19.63;;
6661;SDS011;3367;48.714;8.994;2023-02-14T08:51:26;34.97;;;19.43;;
6661;SDS011;3367;48.714;8.994;2023-02-14T08:53:53;37.63;;;20.30;;
6661;SDS011;3367;48.714;8.994;2023-02-14T08:56:21;38.47;;;20.67;;
6661;SDS011;3367;48.714;8.994;2023-02-14T08:58:50;45.53;;;20.03;;
6661;SDS011;3367;48.714;8.994;2023-02-14T09:01:18;37.80;;;20.17;;
6661;SDS011;3367;48.714;8.994;2023-02-14T09:03:45;36.00;;;20.20;;
6661;SDS011;3367;48.714;8.994;2023-02-14T09:06:13;38.87;;;19.33;;
6661;SDS011;3367;48.714;8.994;2023-02-14T09:08:41;37.87;;;19.37;;
6661;SDS011;3367;48.714;8.994;2023-02-14T09:11:09;34.90;;;17.27;;
6661;SDS011;3367;48.714;8.994;2023-02-14T09:13:39;40.30;;;17.90;;
6661;SDS011;3367;48.714;8.994;2023-02-14T09:16:06;34.83;;;17.50;;
6661;SDS011;3367;48.714;8.994;2023-02-14T09:18:35;32.27;;;18.67;;
6661;SDS011;3367;48.714;8.994;2023-02-14T09:21:05;29.70;;;16.60;;
6661;SDS011;3367;48.714;8.994;2023-02-14T09:23:33;31.67;;;18.30;;
6661;SDS011;3367;48.714;8.994;2023-02-14T09:25:59;32.93;;;17.87;;
6661;SDS011;3367;48.714;8.994;2023-02-14T09:28:27;30.27;;;16.53;;
6661;SDS011;3367;48.714;8.994;2023-02-14T09:30:56;42.13;;;19.53;;
6661;SDS011;3367;48.714;8.994;2023-02-14T09:33:24;30.87;;;17.47;;
6661;SDS011;3367;48.714;8.994;2023-02-14T09:35:53;28.77;;;17.20;;
6661;SDS011;3367;48.714;8.994;2023-02-14T09:38:37;28.37;;;15.93;;
6661;SDS011;3367;48.714;8.994;2023-02-14T09:41:04;24.97;;;16.10;;
6661;SDS011;3367;48.714;8.994;2023-02-14T09:43:33;32.73;;;16.77;;
6661;SDS011;3367;48.714;8.994;2023-02-14T09:46:04;34.10;;;16.30;;
6661;SDS011;3367;48.714;8.994;2023-02-14T09:48:37;29.90;;;16.10;;
6661;SDS011;3367;48.714;8.994;2023-02-14T09:51:06;27.60;;;16.50;;
6661;SDS011;3367;48.714;8.994;2023-02-14T09:53:39;34.50;;;18.20;;
6661;SDS011;3367;48.714;8.994;2023-02-14T09:56:10;28.10;;;16.70;;
6661;SDS011;3367;48.714;8.994;2023-02-14T09:58:42;28.83;;;15.07;;
6661;SDS011;3367;48.714;8.994;2023-02-14T10:01:17;27.23;;;15.43;;
6661;SDS011;3367;48.714;8.994;2023-02-14T10:03:54;27.40;;;14.90;;
6661;SDS011;3367;48.714;8.994;2023-02-14T10:06:49;27.03;;;14.63;;
6661;SDS011;3367;48.714;8.994;2023-02-14T10:09:23;27.93;;;15.73;;
6661;SDS011;3367;48.714;8.994;2023-02-14T10:12:05;28.07;;;16.10;;
6661;SDS011;3367;48.714;8.994;2023-02-14T10:14:39;27.80;;;15.63;;
6661;SDS011;3367;48.714;8.994;2023-02-14T10:17:08;28.33;;;15.30;;
6661;SDS011;3367;48.714;8.994;2023-02-14T10:19:42;25.07;;;15.33;;
6661;SDS011;3367;48.714;8.994;2023-02-14T10:22:14;30.07;;;15.80;;
6661;SDS011;3367;48.714;8.994;2023-02-14T10:24:44;23.30;;;14.30;;
6661;SDS011;3367;48.714;8.994;2023-02-14T10:27:17;24.87;;;15.60;;
6661;SDS011;3367;48.714;8.994;2023-02-14T10:29:54;25.60;;;15.50;;
6661;SDS011;3367;48.714;8.994;2023-02-14T10:32:24;27.47;;;16.20;;
6661;SDS011;3367;48.714;8.994;2023-02-14T10:34:57;25.87;;;16.27;;
6661;SDS011;3367;48.714;8.994;2023-02-14T10:37:30;26.13;;;14.80;;
6661;SDS011;3367;48.714;8.994;2023-02-14T10:40:15;27.50;;;14.77;;
6661;SDS011;3367;48.714;8.994;2023-02-14T10:42:52;21.53;;;13.20;;
6661;SDS011;3367;48.714;8.994;2023-02-14T10:45:27;26.37;;;14.90;;
6661;SDS011;3367;48.714;8.994;2023-02-14T10:48:04;25.40;;;13.97;;
6661;SDS011;3367;48.714;8.994;2023-02-14T10:50:42;23.37;;;14.33;;
6661;SDS011;3367;48.714;8.994;2023-02-14T10:53:18;22.67;;;13.43;;
6661;SDS011;3367;48.714;8.994;2023-02-14T10:55:54;22.60;;;14.67;;
6661;SDS011;3367;48.714;8.994;2023-02-14T10:58:23;20.60;;;14.33;;
6661;SDS011;3367;48.714;8.994;2023-02-14T11:00:55;21.37;;;14.50;;
6661;SDS011;3367;48.714;8.994;2023-02-14T11:03:27;24.13;;;15.50;;
6661;SDS011;3367;48.714;8.994;2023-02-14T11:05:55;22.03;;;14.17;;
6661;SDS011;3367;48.714;8.994;2023-02-14T11:08:24;21.73;;;13.90;;
6661;SDS011;3367;48.714;8.994;2023-02-14T11:10:54;23.10;;;13.53;;
6661;SDS011;3367;48.714;8.994;2023-02-14T11:13:30;19.63;;;13.30;;
6661;SDS011;3367;48.714;8.994;2023-02-14T11:16:00;21.43;;;13.60;;
6661;SDS011;3367;48.714;8.994;2023-02-14T11:18:29;23.97;;;13.50;;
6661;SDS011;3367;48.714;8.994;2023-02-14T11:21:01;20.67;;;13.10;;
6661;SDS011;3367;48.714;8.994;2023-02-14T11:23:33;24.87;;;13.73;;
6661;SDS011;3367;48.714;8.994;2023-02-14T11:26:02;24.57;;;14.47;;
6661;SDS011;3367;48.714;8.994;2023-02-14T11:28:32;19.23;;;12.37;;
6661;SDS011;3367;48.714;8.994;2023-02-14T11:31:00;18.80;;;14.40;;
6661;SDS011;3367;48.714;8.994;2023-02-14T11:33:31;22.80;;;12.40;;
6661;SDS011;3367;48.714;8.994;2023-02-14T11:36:02;22.37;;;12.70;;
6661;SDS011;3367;48.714;8.994;2023-02-14T11:38:35;20.13;;;13.17;;
6661;SDS011;3367;48.714;8.994;2023-02-14T11:41:04;18.37;;;12.47;;
6661;SDS011;3367;48.714;8.994;2023-02-14T11:43:33;20.00;;;12.93;;
6661;SDS011;3367;48.714;8.994;2023-02-14T11:46:06;21.83;;;12.27;;
6661;SDS011;3367;48.714;8.994;2023-02-14T11:48:56;23.93;;;13.43;;
6661;SDS011;3367;48.714;8.994;2023-02-14T11:51:25;17.83;;;11.20;;
6661;SDS011;3367;48.714;8.994;2023-02-14T11:53:55;15.50;;;10.00;;
6661;SDS011;3367;48.714;8.994;2023-02-14T11:56:24;14.17;;;9.87;;
6661;SDS011;3367;48.714;8.994;2023-02-14T11:59:18;16.57;;;11.40;;
6661;SDS011;3367;48.714;8.994;2023-02-14T12:01:55;14.53;;;10.37;;
6661;SDS011;3367;48.714;8.994;2023-02-14T12:04:29;14.90;;;10.23;;
6661;SDS011;3367;48.714;8.994;2023-02-14T12:07:11;16.70;;;10.53;;
6661;SDS011;3367;48.714;8.994;2023-02-14T12:09:40;13.77;;;10.17;;
6661;SDS011;3367;48.714;8.994;2023-02-14T12:12:13;16.63;;;11.17;;
6661;SDS011;3367;48.714;8.994;2023-02-14T12:14:42;15.97;;;10.63;;
6661;SDS011;3367;48.714;8.994;2023-02-14T12:17:11;14.90;;;9.70;;
6661;SDS011;3367;48.714;8.994;2023-02-14T12:19:48;14.80;;;10.60;;
6661;SDS011;3367;48.714;8.994;2023-02-14T12:22:19;18.60;;;10.93;;
6661;SDS011;3367;48.714;8.994;2023-02-14T12:24:53;16.73;;;10.47;;
6661;SDS011;3367;48.714;8.994;2023-02-14T12:27:27;16.73;;;11.13;;
6661;SDS011;3367;48.714;8.994;2023-02-14T12:29:58;15.40;;;10.67;;
6661;SDS011;3367;48.714;8.994;2023-02-14T12:32:31;16.90;;;10.33;;
6661;SDS011;3367;48.714;8.994;2023-02-14T12:35:01;15.40;;;10.20;;
6661;SDS011;3367;48.714;8.994;2023-02-14T12:37:39;19.23;;;10.40;;
6661;SDS011;3367;48.714;8.994;2023-02-14T12:40:19;16.40;;;11.70;;
6661;SDS011;3367;48.714;8.994;2023-02-14T12:42:59;20.17;;;12.50;;
6661;SDS011;3367;48.714;8.994;2023-02-14T12:45:44;17.40;;;11.90;;
6661;SDS011;3367;48.714;8.994;2023-02-14T12:48:35;24.13;;;14.30;;
6661;SDS011;3367;48.714;8.994;2023-02-14T12:51:14;22.37;;;14.57;;
6661;SDS011;3367;48.714;8.994;2023-02-14T12:53:57;19.30;;;13.73;;
6661;SDS011;3367;48.714;8.994;2023-02-14T12:56:37;23.57;;;15.10;;
6661;SDS011;3367;48.714;8.994;2023-02-14T12:59:14;26.30;;;15.30;;
6661;SDS011;3367;48.714;8.994;2023-02-14T13:01:57;25.00;;;15.27;;
6661;SDS011;3367;48.714;8.994;2023-02-14T13:04:43;25.40;;;16.73;;
6661;SDS011;3367;48.714;8.994;2023-02-14T13:07:22;23.63;;;15.17;;
6661;SDS011;3367;48.714;8.994;2023-02-14T13:10:03;27.50;;;16.40;;
6661;SDS011;3367;48.714;8.994;2023-02-14T13:12:41;26.93;;;15.80;;
6661;SDS011;3367;48.714;8.994;2023-02-14T13:15:18;28.43;;;15.73;;
6661;SDS011;3367;48.714;8.994;2023-02-14T13:17:53;27.67;;;15.57;;
6661;SDS011;3367;48.714;8.994;2023-02-14T13:23:16;27.00;;;14.63;;
6661;SDS011;3367;48.714;8.994;2023-02-14T13:25:48;22.33;;;14.37;;
6661;SDS011;3367;48.714;8.994;2023-02-14T13:28:19;27.83;;;15.80;;
6661;SDS011;3367;48.714;8.994;2023-02-14T13:30:46;25.10;;;15.47;;
6661;SDS011;3367;48.714;8.994;2023-02-14T13:33:17;21.47;;;14.90;;
6661;SDS011;3367;48.714;8.994;2023-02-14T13:35:50;32.87;;;15.70;;
6661;SDS011;3367;48.714;8.994;2023-02-14T13:38:22;22.50;;;15.40;;
6661;SDS011;3367;48.714;8.994;2023-02-14T13:40:51;31.83;;;16.03;;
6661;SDS011;3367;48.714;8.994;2023-02-14T13:46:15;25.53;;;14.63;;
6661;SDS011;3367;48.714;8.994;2023-02-14T13:48:54;24.20;;;16.93;;
6661;SDS011;3367;48.714;8.994;2023-02-14T13:54:20;24.13;;;15.17;;
6661;SDS011;3367;48.714;8.994;2023-02-14T13:56:54;27.07;;;15.37;;
6661;SDS011;3367;48.714;8.994;2023-02-14T13:59:23;25.17;;;16.20;;
6661;SDS011;3367;48.714;8.994;2023-02-14T14:01:53;21.20;;;14.30;;
6661;SDS011;3367;48.714;8.994;2023-02-14T14:04:33;19.00;;;13.17;;
6661;SDS011;3367;48.714;8.994;2023-02-14T14:07:22;19.37;;;12.53;;
6661;SDS011;3367;48.714;8.994;2023-02-14T14:09:56;19.90;;;13.60;;
6661;SDS011;3367;48.714;8.994;2023-02-14T14:12:41;17.83;;;13.30;;
6661;SDS011;3367;48.714;8.994;2023-02-14T14:15:12;20.97;;;14.23;;
6661;SDS011;3367;48.714;8.994;2023-02-14T14:17:42;21.10;;;13.30;;
6661;SDS011;3367;48.714;8.994;2023-02-14T14:23:25;18.97;;;13.03;;
6661;SDS011;3367;48.714;8.994;2023-02-14T14:26:00;21.27;;;13.70;;
6661;SDS011;3367;48.714;8.994;2023-02-14T14:28:30;16.67;;;12.10;;
6661;SDS011;3367;48.714;8.994;2023-02-14T14:30:58;28.20;;;12.97;;
6661;SDS011;3367;48.714;8.994;2023-02-14T14:33:26;28.90;;;14.07;;
6661;SDS011;3367;48.714;8.994;2023-02-14T14:35:56;20.20;;;13.17;;
6661;SDS011;3367;48.714;8.994;2023-02-14T14:38:24;19.70;;;13.40;;
6661;SDS011;3367;48.714;8.994;2023-02-14T14:40:52;22.13;;;14.13;;
6661;SDS011;3367;48.714;8.994;2023-02-14T14:43:23;25.40;;;14.07;;
6661;SDS011;3367;48.714;8.994;2023-02-14T14:45:52;20.73;;;12.77;;
6661;SDS011;3367;48.714;8.994;2023-02-14T14:48:22;18.70;;;13.60;;
6661;SDS011;3367;48.714;8.994;2023-02-14T14:50:53;19.97;;;13.53;;
6661;SDS011;3367;48.714;8.994;2023-02-14T14:53:21;19.83;;;13.50;;
6661;SDS011;3367;48.714;8.994;2023-02-14T14:55:52;21.33;;;13.47;;
6661;SDS011;3367;48.714;8.994;2023-02-14T14:58:30;16.73;;;11.70;;
6661;SDS011;3367;48.714;8.994;2023-02-14T15:00:59;15.83;;;11.87;;
6661;SDS011;3367;48.714;8.994;2023-02-14T15:03:26;17.47;;;11.80;;
6661;SDS011;3367;48.714;8.994;2023-02-14T15:06:01;15.40;;;10.80;;
6661;SDS011;3367;48.714;8.994;2023-02-14T15:08:32;20.20;;;13.83;;
6661;SDS011;3367;48.714;8.994;2023-02-14T15:11:01;22.37;;;14.00;;
6661;SDS011;3367;48.714;8.994;2023-02-14T15:13:35;21.73;;;13.77;;
6661;SDS011;3367;48.714;8.994;2023-02-14T15:16:15;22.60;;;14.80;;
6661;SDS011;3367;48.714;8.994;2023-02-14T15:18:43;26.87;;;14.87;;
6661;SDS011;3367;48.714;8.994;2023-02-14T15:21:10;23.60;;;15.57;;
6661;SDS011;3367;48.714;8.994;2023-02-14T15:23:39;23.00;;;14.57;;
6661;SDS011;3367;48.714;8.994;2023-02-14T15:26:08;20.60;;;14.17;;
6661;SDS011;3367;48.714;8.994;2023-02-14T15:28:46;22.20;;;14.60;;
6661;SDS011;3367;48.714;8.994;2023-02-14T15:31:20;22.17;;;14.70;;
6661;SDS011;3367;48.714;8.994;2023-02-14T15:33:47;22.27;;;15.80;;